Time;durP1;ratioP1;P1;durP2;ratioP2;P2;SDS_P1;SDS_P2;PMS_P1;PMS_P2;Temp;Humidity;BMP_temperature;BMP_pressure;BME280_temperature;BME280_humidity;BME280_pressure;Samples;Min_cycle;Max_cycle;Signal;HPM_P1;HPM_P2
2023/04/27 16:23:13;;;;;;;1.90;0.90;;;;;;;21.70;46.91;101032.81;5113623;27;21065;-49
2023/04/27 16:25:40;;;;;;;3.55;1.10;;;;;;;22.47;44.97;101038.88;5109064;28;20028;-49
2023/04/27 16:28:09;;;;;;;3.17;1.00;;;;;;;23.06;43.82;101037.38;5109581;28;20047;-47
2023/04/27 16:30:37;;;;;;;2.58;1.10;;;;;;;23.44;42.79;101034.56;5109968;28;20024;-50
2023/04/27 16:33:05;;;;;;;4.18;0.95;;;;;;;23.75;41.87;101034.16;5104877;28;20028;-49
2023/04/27 16:35:32;;;;;;;3.40;0.90;;;;;;;23.92;41.85;101039.66;5108402;28;20024;-50
2023/04/27 16:38:01;;;;;;;4.55;1.35;;;;;;;24.10;41.03;101033.81;5109405;28;20052;-49
2023/04/27 16:40:30;;;;;;;2.70;1.23;;;;;;;24.16;41.32;101027.78;5110039;28;20036;-47
2023/04/27 16:42:59;;;;;;;3.20;0.93;;;;;;;24.27;40.74;101028.81;5109019;28;20028;-51
2023/04/27 16:45:28;;;;;;;1.75;0.90;;;;;;;24.30;40.69;101022.72;5092279;28;20028;-49
2023/04/27 16:47:58;;;;;;;1.85;0.93;;;;;;;24.39;40.43;101021.09;5110499;28;20028;-50
2023/04/27 16:50:27;;;;;;;5.68;1.10;;;;;;;24.37;40.26;101011.44;5109784;28;20393;-48
2023/04/27 16:52:55;;;;;;;3.83;1.13;;;;;;;24.39;40.25;101014.97;5109859;28;20040;-50
2023/04/27 16:55:27;;;;;;;3.50;1.00;;;;;;;24.46;40.10;101023.78;5108921;28;20028;-48
2023/04/27 16:57:56;;;;;;;1.95;0.90;;;;;;;24.53;39.90;101028.22;5110336;28;20032;-48
2023/04/27 17:00:24;;;;;;;3.25;1.13;;;;;;;24.47;40.21;101028.19;5108744;28;20085;-49
2023/04/27 17:02:52;;;;;;;5.97;1.27;;;;;;;24.44;40.17;101029.00;5109513;28;20055;-49
2023/04/27 17:05:20;;;;;;;3.90;1.10;;;;;;;24.40;40.13;101014.97;5108229;28;20448;-49
2023/04/27 17:07:48;;;;;;;3.80;1.30;;;;;;;24.46;39.79;101021.16;5110021;28;20020;-49
2023/04/27 17:10:17;;;;;;;2.50;1.20;;;;;;;24.48;40.01;101022.94;5109991;28;20354;-48
2023/04/27 17:12:46;;;;;;;5.20;0.98;;;;;;;24.48;39.66;101030.81;5108907;28;20051;-48
2023/04/27 17:15:16;;;;;;;3.13;0.93;;;;;;;24.50;39.82;101036.06;5109766;28;20024;-49
2023/04/27 17:17:45;;;;;;;2.45;1.10;;;;;;;24.52;39.56;101034.34;5108528;28;20032;-48
2023/04/27 17:20:14;;;;;;;3.08;1.23;;;;;;;24.52;39.71;101031.72;5109487;28;20054;-48
2023/04/27 17:22:43;;;;;;;2.78;1.13;;;;;;;24.53;39.66;101036.09;5109339;28;20100;-52
2023/04/27 17:25:12;;;;;;;3.00;1.10;;;;;;;24.53;39.40;101029.13;5109916;28;20035;-50
2023/04/27 17:27:40;;;;;;;2.70;1.02;;;;;;;24.54;39.61;101030.00;5107976;28;20023;-50
2023/04/27 17:30:09;;;;;;;3.35;1.10;;;;;;;24.55;39.56;101026.50;5109469;28;20078;-50
2023/04/27 17:32:38;;;;;;;3.33;1.27;;;;;;;24.53;39.29;101022.97;5106381;28;20111;-50
2023/04/27 17:35:07;;;;;;;2.10;1.05;;;;;;;24.53;39.23;101017.75;5096137;28;20031;-51
2023/04/27 17:37:36;;;;;;;3.08;1.10;;;;;;;24.57;39.29;101014.28;5095824;28;20032;-53
2023/04/27 17:40:09;;;;;;;1.98;0.93;;;;;;;24.55;39.45;101019.53;5095980;28;20024;-50
2023/04/27 17:42:38;;;;;;;3.47;1.23;;;;;;;24.57;39.48;101025.66;5095857;28;20036;-48
2023/04/27 17:45:07;;;;;;;5.28;1.10;;;;;;;24.58;39.16;101026.53;5095587;28;20020;-51
2023/04/27 17:47:36;;;;;;;2.88;1.20;;;;;;;24.55;39.47;101026.50;5095512;28;20027;-48
2023/04/27 17:50:04;;;;;;;2.47;1.05;;;;;;;24.57;39.48;101036.13;5095821;28;20045;-50
2023/04/27 17:52:33;;;;;;;3.70;1.00;;;;;;;24.57;39.15;101041.38;5094354;28;20024;-49
2023/04/27 17:55:01;;;;;;;3.40;1.00;;;;;;;24.58;39.27;101031.78;5095411;28;20028;-48
2023/04/27 17:57:28;;;;;;;2.67;1.30;;;;;;;24.58;39.33;101029.16;5095107;28;20016;-50
2023/04/27 17:59:57;;;;;;;3.53;1.30;;;;;;;24.59;39.42;101038.81;5095639;28;20016;-49
2023/04/27 18:02:26;;;;;;;2.40;1.10;;;;;;;24.60;39.13;101040.56;5095381;28;20055;-48
2023/04/27 18:04:54;;;;;;;2.05;0.95;;;;;;;24.62;39.06;101025.72;5095266;28;20400;-50
2023/04/27 18:07:24;;;;;;;2.65;1.00;;;;;;;24.60;39.37;101021.31;5095173;28;20462;-49
2023/04/27 18:09:53;;;;;;;3.33;1.42;;;;;;;24.61;39.42;101020.44;5095573;28;20070;-48
2023/04/27 18:12:22;;;;;;;4.28;1.42;;;;;;;24.60;39.32;101018.69;5095429;28;20028;-48
2023/04/27 18:14:51;;;;;;;3.13;1.60;;;;;;;24.62;38.97;101006.47;5095238;28;20128;-50
2023/04/27 18:17:20;;;;;;;3.63;1.10;;;;;;;24.59;39.01;100999.47;5094911;28;20107;-49
2023/04/27 18:19:50;;;;;;;2.47;1.20;;;;;;;24.61;39.31;100999.47;5094648;28;20130;-48
2023/04/27 18:22:18;;;;;;;3.83;1.23;;;;;;;24.62;39.09;100991.63;5094650;28;20516;-49
2023/04/27 18:24:47;;;;;;;3.05;1.20;;;;;;;24.58;39.02;100998.56;5094992;28;20114;-48
2023/04/27 18:27:16;;;;;;;2.58;1.10;;;;;;;24.60;39.21;100998.59;5093665;28;20028;-47
2023/04/27 18:29:44;;;;;;;3.10;0.90;;;;;;;24.62;38.87;100998.59;5093554;28;20039;-48
2023/04/27 18:32:13;;;;;;;3.70;1.63;;;;;;;24.61;39.16;100995.13;5094589;28;20177;-47
2023/04/27 18:34:42;;;;;;;2.53;1.00;;;;;;;24.66;38.80;100992.53;5093372;28;20397;-48
2023/04/27 18:37:11;;;;;;;2.22;1.00;;;;;;;24.62;39.29;100985.47;5093667;28;20024;-50
2023/04/27 18:39:40;;;;;;;2.50;1.02;;;;;;;24.61;38.98;100984.63;5094536;28;20031;-47
2023/04/27 18:42:09;;;;;;;2.53;1.00;;;;;;;24.60;39.13;100980.22;5094307;28;20035;-47
2023/04/27 18:44:37;;;;;;;1.52;1.00;;;;;;;24.64;39.25;100976.78;5093633;28;20070;-47
2023/04/27 18:47:06;;;;;;;2.95;1.20;;;;;;;24.63;39.21;100990.75;5094390;28;20032;-47
2023/04/27 18:49:35;;;;;;;3.30;1.08;;;;;;;24.63;39.08;100982.91;5094441;28;20020;-47
2023/04/27 18:52:06;;;;;;;4.15;1.35;;;;;;;24.63;38.87;100980.28;5093176;28;20485;-47
2023/04/27 18:54:35;;;;;;;5.15;1.35;;;;;;;24.64;38.77;100989.91;5094184;28;20059;-47
2023/04/27 18:57:03;;;;;;;2.80;0.88;;;;;;;24.66;39.12;100995.16;5094297;28;20051;-49
2023/04/27 18:59:32;;;;;;;2.13;0.93;;;;;;;24.64;38.82;100995.16;5094372;28;20535;-48
2023/04/27 19:02:01;;;;;;;4.47;1.35;;;;;;;24.64;38.99;101005.63;5093501;28;20082;-47
2023/04/27 19:04:28;;;;;;;6.10;1.42;;;;;;;24.63;39.15;101002.97;5093978;28;20178;-48
2023/04/27 19:06:57;;;;;;;3.50;1.20;;;;;;;24.65;38.88;100994.28;5093334;28;20032;-47
2023/04/27 19:09:26;;;;;;;3.25;1.30;;;;;;;24.61;39.19;101004.72;5094017;28;20028;-48
2023/04/27 19:11:55;;;;;;;2.80;1.35;;;;;;;24.63;38.84;101006.50;5093791;28;20036;-47
2023/04/27 19:14:23;;;;;;;2.72;1.15;;;;;;;24.61;39.15;100997.75;5092686;28;20362;-47
2023/04/27 19:16:52;;;;;;;2.45;1.23;;;;;;;24.61;38.87;101005.59;5093942;28;20032;-48
2023/04/27 19:19:21;;;;;;;2.60;1.00;;;;;;;24.62;39.26;101009.09;5092780;28;20024;-50
2023/04/27 19:21:49;;;;;;;4.82;1.23;;;;;;;24.61;39.10;101007.34;5093474;28;20466;-51
2023/04/27 19:24:18;;;;;;;3.08;1.13;;;;;;;24.59;39.07;101012.56;5093762;28;20024;-50
2023/04/27 19:26:48;;;;;;;2.25;1.20;;;;;;;24.59;39.16;101007.31;5093753;28;20204;-50
2023/04/27 19:29:17;;;;;;;2.97;1.20;;;;;;;24.59;39.09;101009.94;5093613;28;20032;-50
2023/04/27 19:31:45;;;;;;;2.55;1.23;;;;;;;24.60;39.24;101014.34;5093829;28;20137;-50
2023/04/27 19:34:14;;;;;;;3.17;1.10;;;;;;;24.58;39.28;101006.44;5094000;28;20484;-48
2023/04/27 19:36:43;;;;;;;4.13;1.42;;;;;;;24.57;38.99;101012.53;5092297;28;20393;-50
2023/04/27 19:39:12;;;;;;;1.92;1.20;;;;;;;24.57;38.89;101009.91;5093437;28;20028;-49
2023/04/27 19:41:40;;;;;;;4.25;1.17;;;;;;;24.60;39.08;101014.34;5091936;28;20424;-51
2023/04/27 19:44:08;;;;;;;2.80;1.17;;;;;;;24.58;39.02;101019.53;5093548;28;20024;-50
2023/04/27 19:46:36;;;;;;;4.20;1.25;;;;;;;24.60;38.83;101008.19;5093663;28;20024;-49
2023/04/27 19:49:05;;;;;;;4.03;1.15;;;;;;;24.62;39.15;101006.47;5093202;28;20092;-48
2023/04/27 19:51:34;;;;;;;2.22;1.10;;;;;;;24.58;39.14;101006.44;5093150;28;20111;-48
2023/04/27 19:54:02;;;;;;;3.83;1.40;;;;;;;24.61;39.09;101013.47;5093507;28;20039;-48
2023/04/27 19:56:31;;;;;;;4.30;1.45;;;;;;;24.63;38.86;101013.47;5093437;28;20069;-49
2023/04/27 19:58:59;;;;;;;2.83;1.25;;;;;;;24.60;38.84;101021.31;5092158;28;20032;-48
2023/04/27 20:01:28;;;;;;;3.15;1.30;;;;;;;24.58;38.88;101024.78;5093063;28;20092;-49
